Terminal Aerodrome Forecast
Issued by NWS

Home | Current Version | Previous Version | Text Only | Print | Product List | Glossary On
Versions: 1 2 3 4 5 6 7 8 9 10 11 12 13 14 15 16 17 18 19 20 21 22
411
FTUS41 KPBZ 230857 AAB
TAFMGW
TAF AMD
KMGW 230857Z 2309/2406 29003KT P6SM SCT020 BKN050
      TEMPO 2309/2310 BKN020
     FM231200 30005KT P6SM SCT040=

USA.gov is the U.S. government's official web portal to all federal, state and local government web resources and services.